createdAt,value
2019-05-26T00:00:50.000Z,15.75
2019-05-26T00:01:50.000Z,15.75
2019-05-26T00:02:50.000Z,15.69
2019-05-26T00:03:50.000Z,15.62
2019-05-26T00:04:50.000Z,15.62
2019-05-26T00:05:50.000Z,15.56
2019-05-26T00:06:50.000Z,15.50
2019-05-26T00:07:50.000Z,15.50
2019-05-26T00:08:50.000Z,15.56
2019-05-26T00:09:50.000Z,15.56
2019-05-26T00:10:50.000Z,15.56
2019-05-26T00:11:50.000Z,15.50
2019-05-26T00:12:50.000Z,15.50
2019-05-26T00:13:50.000Z,15.50
2019-05-26T00:14:50.000Z,15.50
2019-05-26T00:15:50.000Z,15.44
2019-05-26T00:16:50.000Z,15.44
2019-05-26T00:17:50.000Z,15.44
2019-05-26T00:18:50.000Z,15.44
2019-05-26T00:19:50.000Z,15.44
2019-05-26T00:20:50.000Z,15.44
2019-05-26T00:21:50.000Z,15.44
2019-05-26T00:22:50.000Z,15.44
2019-05-26T00:23:50.000Z,15.44
2019-05-26T00:24:50.000Z,15.44
2019-05-26T00:25:50.000Z,15.50
2019-05-26T00:26:50.000Z,15.50
2019-05-26T00:27:50.000Z,15.50
2019-05-26T00:28:50.000Z,15.50
2019-05-26T00:29:50.000Z,15.44
2019-05-26T00:30:50.000Z,15.44
2019-05-26T00:31:50.000Z,15.44
2019-05-26T00:32:50.000Z,15.44
2019-05-26T00:33:50.000Z,15.44
2019-05-26T00:34:50.000Z,15.44
2019-05-26T00:35:50.000Z,15.44
2019-05-26T00:36:50.000Z,15.44
2019-05-26T00:37:50.000Z,15.44
2019-05-26T00:38:50.000Z,15.44
2019-05-26T00:39:50.000Z,15.44
2019-05-26T00:40:50.000Z,15.44
2019-05-26T00:41:50.000Z,15.44
2019-05-26T00:42:50.000Z,15.44
2019-05-26T00:43:50.000Z,15.50
2019-05-26T00:44:50.000Z,15.44
2019-05-26T00:45:50.000Z,15.44
2019-05-26T00:46:50.000Z,15.38
2019-05-26T00:47:50.000Z,15.38
2019-05-26T00:48:50.000Z,15.38
2019-05-26T00:49:50.000Z,15.38
2019-05-26T00:50:50.000Z,15.38
2019-05-26T00:51:50.000Z,15.38
2019-05-26T00:52:50.000Z,15.31
2019-05-26T00:53:50.000Z,15.31
2019-05-26T00:54:50.000Z,15.38
2019-05-26T00:55:50.000Z,15.38
2019-05-26T00:56:50.000Z,15.38
2019-05-26T00:57:50.000Z,15.38
2019-05-26T00:58:50.000Z,15.31
2019-05-26T00:59:50.000Z,15.31
2019-05-26T01:00:50.000Z,15.31
2019-05-26T01:01:50.000Z,15.25
2019-05-26T01:02:50.000Z,15.25
2019-05-26T01:03:50.000Z,15.19
2019-05-26T01:04:50.000Z,15.12
2019-05-26T01:05:50.000Z,15.12
2019-05-26T01:06:50.000Z,15.06
2019-05-26T01:07:50.000Z,15.00
2019-05-26T01:08:50.000Z,14.94
2019-05-26T01:09:50.000Z,14.88
2019-05-26T01:10:50.000Z,14.88
2019-05-26T01:11:50.000Z,14.88
2019-05-26T01:12:50.000Z,14.88
2019-05-26T01:13:50.000Z,14.81
2019-05-26T01:14:50.000Z,14.88
2019-05-26T01:15:50.000Z,14.81
2019-05-26T01:16:50.000Z,14.81
2019-05-26T01:17:50.000Z,14.88
2019-05-26T01:18:50.000Z,14.81
2019-05-26T01:19:50.000Z,14.88
2019-05-26T01:20:50.000Z,14.88
2019-05-26T01:21:50.000Z,14.88
2019-05-26T01:22:50.000Z,14.81
2019-05-26T01:23:50.000Z,14.81
2019-05-26T01:24:50.000Z,14.81
2019-05-26T01:25:50.000Z,14.81
2019-05-26T01:26:50.000Z,14.81
2019-05-26T01:27:50.000Z,14.88
2019-05-26T01:28:50.000Z,14.88
2019-05-26T01:29:50.000Z,14.81
2019-05-26T01:30:50.000Z,14.81
2019-05-26T01:31:50.000Z,14.75
2019-05-26T01:32:50.000Z,14.75
2019-05-26T01:33:50.000Z,14.75
2019-05-26T01:34:50.000Z,14.75
2019-05-26T01:35:50.000Z,14.75
2019-05-26T01:36:50.000Z,14.75
2019-05-26T01:37:50.000Z,14.75
2019-05-26T01:38:50.000Z,14.75
2019-05-26T01:39:50.000Z,14.75
2019-05-26T01:40:50.000Z,14.75
2019-05-26T01:41:50.000Z,14.75
2019-05-26T01:42:50.000Z,14.75
2019-05-26T01:43:50.000Z,14.75
2019-05-26T01:44:50.000Z,14.75
2019-05-26T01:45:50.000Z,14.75
2019-05-26T01:46:50.000Z,14.75
2019-05-26T01:47:50.000Z,14.75
2019-05-26T01:48:50.000Z,14.75
2019-05-26T01:49:50.000Z,14.69
2019-05-26T01:50:50.000Z,14.69
2019-05-26T01:51:50.000Z,14.62
2019-05-26T01:52:50.000Z,14.62
2019-05-26T01:53:50.000Z,14.56
2019-05-26T01:54:50.000Z,14.50
2019-05-26T01:55:50.000Z,14.50
2019-05-26T01:56:50.000Z,14.50
2019-05-26T01:57:50.000Z,14.44
2019-05-26T01:58:50.000Z,14.44
2019-05-26T01:59:50.000Z,14.44
2019-05-26T02:00:50.000Z,14.44
2019-05-26T02:01:50.000Z,14.44
2019-05-26T02:02:50.000Z,14.38
2019-05-26T02:03:50.000Z,14.31
2019-05-26T02:04:50.000Z,14.31
2019-05-26T02:05:50.000Z,14.31
2019-05-26T02:06:50.000Z,14.25
2019-05-26T02:07:50.000Z,14.25
2019-05-26T02:08:50.000Z,14.19
2019-05-26T02:09:50.000Z,14.25
2019-05-26T02:10:50.000Z,14.19
2019-05-26T02:11:50.000Z,14.19
2019-05-26T02:12:50.000Z,14.12
2019-05-26T02:13:50.000Z,14.12
2019-05-26T02:14:50.000Z,14.12
2019-05-26T02:15:50.000Z,14.12
2019-05-26T02:16:50.000Z,14.12
2019-05-26T02:17:50.000Z,14.12
2019-05-26T02:18:50.000Z,14.19
2019-05-26T02:19:50.000Z,14.19
2019-05-26T02:20:50.000Z,14.12
2019-05-26T02:21:50.000Z,14.19
2019-05-26T02:22:50.000Z,14.12
2019-05-26T02:23:50.000Z,14.12
2019-05-26T02:24:50.000Z,14.06
2019-05-26T02:25:50.000Z,14.12
2019-05-26T02:26:50.000Z,14.06
2019-05-26T02:27:50.000Z,14.06
2019-05-26T02:28:50.000Z,14.06
2019-05-26T02:29:50.000Z,14.06
2019-05-26T02:30:50.000Z,14.06
2019-05-26T02:31:50.000Z,14.06
2019-05-26T02:32:50.000Z,14.06
2019-05-26T02:33:50.000Z,14.06
2019-05-26T02:34:50.000Z,14.06
2019-05-26T02:35:50.000Z,14.06
2019-05-26T02:36:50.000Z,14.06
2019-05-26T02:37:50.000Z,14.12
2019-05-26T02:38:50.000Z,14.12
2019-05-26T02:39:50.000Z,14.12
2019-05-26T02:40:50.000Z,14.12
2019-05-26T02:41:50.000Z,14.12
2019-05-26T02:42:50.000Z,14.12
2019-05-26T02:43:50.000Z,14.12
2019-05-26T02:44:50.000Z,14.19
2019-05-26T02:45:50.000Z,14.19
2019-05-26T02:46:50.000Z,14.12
2019-05-26T02:47:50.000Z,14.12
2019-05-26T02:48:50.000Z,14.06
2019-05-26T02:49:50.000Z,14.06
2019-05-26T02:50:50.000Z,14.06
2019-05-26T02:51:50.000Z,14.06
2019-05-26T02:52:50.000Z,14.06
2019-05-26T02:53:50.000Z,14.06
2019-05-26T02:54:50.000Z,14.06
2019-05-26T02:55:50.000Z,14.00
2019-05-26T02:56:50.000Z,14.00
2019-05-26T02:57:50.000Z,14.00
2019-05-26T02:58:50.000Z,14.00
2019-05-26T02:59:50.000Z,14.00
2019-05-26T03:00:50.000Z,14.00
2019-05-26T03:01:50.000Z,13.94
2019-05-26T03:02:50.000Z,13.94
2019-05-26T03:03:50.000Z,13.94
2019-05-26T03:04:50.000Z,13.88
2019-05-26T03:05:50.000Z,13.81
2019-05-26T03:06:50.000Z,13.88
2019-05-26T03:07:50.000Z,13.81
2019-05-26T03:08:50.000Z,13.81
2019-05-26T03:09:50.000Z,13.88
2019-05-26T03:10:50.000Z,13.88
2019-05-26T03:11:50.000Z,13.81
2019-05-26T03:12:50.000Z,13.88
2019-05-26T03:13:50.000Z,13.88
2019-05-26T03:14:50.000Z,13.88
2019-05-26T03:15:50.000Z,13.88
2019-05-26T03:16:50.000Z,13.88
2019-05-26T03:17:50.000Z,13.88
2019-05-26T03:18:50.000Z,13.88
2019-05-26T03:19:50.000Z,13.81
2019-05-26T03:20:50.000Z,13.81
2019-05-26T03:21:50.000Z,13.81
2019-05-26T03:22:50.000Z,13.75
2019-05-26T03:23:50.000Z,13.75
2019-05-26T03:24:50.000Z,13.69
2019-05-26T03:25:50.000Z,13.69
2019-05-26T03:26:50.000Z,13.62
2019-05-26T03:27:50.000Z,13.56
2019-05-26T03:28:50.000Z,13.56
2019-05-26T03:29:50.000Z,13.56
2019-05-26T03:30:50.000Z,13.50
2019-05-26T03:31:50.000Z,13.50
2019-05-26T03:32:50.000Z,13.50
2019-05-26T03:33:50.000Z,13.50
2019-05-26T03:34:50.000Z,13.56
2019-05-26T03:35:50.000Z,13.50
2019-05-26T03:36:50.000Z,13.50
2019-05-26T03:37:50.000Z,13.56
2019-05-26T03:38:50.000Z,13.50
2019-05-26T03:39:50.000Z,13.50
2019-05-26T03:40:50.000Z,13.50
2019-05-26T03:41:50.000Z,13.50
2019-05-26T03:42:50.000Z,13.50
2019-05-26T03:43:50.000Z,13.50
2019-05-26T03:44:50.000Z,13.50
2019-05-26T03:45:50.000Z,13.50
2019-05-26T03:46:50.000Z,13.50
2019-05-26T03:47:50.000Z,13.56
2019-05-26T03:48:50.000Z,13.56
2019-05-26T03:49:50.000Z,13.56
2019-05-26T03:50:50.000Z,13.56
2019-05-26T03:51:50.000Z,13.56
2019-05-26T03:52:50.000Z,13.56
2019-05-26T03:53:50.000Z,13.62
2019-05-26T03:54:50.000Z,13.56
2019-05-26T03:55:50.000Z,13.56
2019-05-26T03:56:50.000Z,13.56
2019-05-26T03:57:50.000Z,13.50
2019-05-26T03:58:50.000Z,13.50
2019-05-26T03:59:50.000Z,13.50
2019-05-26T04:00:50.000Z,13.50
2019-05-26T04:01:50.000Z,13.50
2019-05-26T04:02:50.000Z,13.50
2019-05-26T04:03:50.000Z,13.50
2019-05-26T04:04:50.000Z,13.50
2019-05-26T04:05:50.000Z,13.56
2019-05-26T04:06:50.000Z,13.50
2019-05-26T04:07:50.000Z,13.50
2019-05-26T04:08:50.000Z,13.50
2019-05-26T04:09:50.000Z,13.50
2019-05-26T04:10:50.000Z,13.56
2019-05-26T04:11:50.000Z,13.50
2019-05-26T04:12:50.000Z,13.50
2019-05-26T04:13:50.000Z,13.56
2019-05-26T04:14:50.000Z,13.56
2019-05-26T04:15:50.000Z,13.50
2019-05-26T04:16:50.000Z,13.56
2019-05-26T04:17:50.000Z,13.50
2019-05-26T04:18:50.000Z,13.44
2019-05-26T04:19:50.000Z,13.50
2019-05-26T04:20:50.000Z,13.50
2019-05-26T04:21:50.000Z,13.50
2019-05-26T04:22:50.000Z,13.50
2019-05-26T04:23:50.000Z,13.44
2019-05-26T04:24:50.000Z,13.50
2019-05-26T04:25:51.000Z,13.50
2019-05-26T04:26:50.000Z,13.50
2019-05-26T04:27:50.000Z,13.50
2019-05-26T04:28:50.000Z,13.50
2019-05-26T04:29:50.000Z,13.56
2019-05-26T04:30:50.000Z,13.56
2019-05-26T04:31:50.000Z,13.56
2019-05-26T04:32:50.000Z,13.56
2019-05-26T04:33:50.000Z,13.56
2019-05-26T04:34:50.000Z,13.56
2019-05-26T04:35:50.000Z,13.56
2019-05-26T04:36:50.000Z,13.56
2019-05-26T04:37:50.000Z,13.62
2019-05-26T04:38:50.000Z,13.62
2019-05-26T04:39:50.000Z,13.62
2019-05-26T04:40:50.000Z,13.69
2019-05-26T04:41:50.000Z,13.75
2019-05-26T04:42:50.000Z,13.69
2019-05-26T04:43:50.000Z,13.75
2019-05-26T04:44:50.000Z,13.75
2019-05-26T04:45:50.000Z,13.75
2019-05-26T04:46:50.000Z,13.75
2019-05-26T04:47:50.000Z,13.75
2019-05-26T04:48:50.000Z,13.75
2019-05-26T04:49:50.000Z,13.81
2019-05-26T04:50:50.000Z,13.81
2019-05-26T04:51:51.000Z,13.81
2019-05-26T04:52:50.000Z,13.81
2019-05-26T04:53:50.000Z,13.81
2019-05-26T04:54:50.000Z,13.81
2019-05-26T04:55:50.000Z,13.81
2019-05-26T04:56:50.000Z,13.81
2019-05-26T04:57:50.000Z,13.88
2019-05-26T04:58:50.000Z,13.88
2019-05-26T04:59:50.000Z,13.88
2019-05-26T05:00:50.000Z,13.88
2019-05-26T05:01:50.000Z,13.94
2019-05-26T05:02:50.000Z,13.88
2019-05-26T05:03:51.000Z,13.94
2019-05-26T05:04:50.000Z,13.88
2019-05-26T05:05:50.000Z,13.94
2019-05-26T05:06:50.000Z,13.94
2019-05-26T05:07:50.000Z,13.94
2019-05-26T05:08:50.000Z,14.00
2019-05-26T05:09:50.000Z,13.94
2019-05-26T05:10:50.000Z,14.00
2019-05-26T05:11:50.000Z,14.06
2019-05-26T05:12:50.000Z,14.00
2019-05-26T05:13:50.000Z,14.00
2019-05-26T05:14:50.000Z,14.06
2019-05-26T05:15:50.000Z,14.12
2019-05-26T05:16:51.000Z,14.06
2019-05-26T05:17:50.000Z,14.12
2019-05-26T05:18:50.000Z,14.12
2019-05-26T05:19:50.000Z,14.12
2019-05-26T05:20:50.000Z,14.19
2019-05-26T05:21:50.000Z,14.19
2019-05-26T05:22:50.000Z,14.19
2019-05-26T05:23:50.000Z,14.19
2019-05-26T05:24:50.000Z,14.19
2019-05-26T05:25:50.000Z,14.25
2019-05-26T05:26:50.000Z,14.25
2019-05-26T05:27:50.000Z,14.25
2019-05-26T05:28:50.000Z,14.31
2019-05-26T05:29:50.000Z,14.31
2019-05-26T05:30:50.000Z,14.31
2019-05-26T05:31:50.000Z,14.31
2019-05-26T05:32:50.000Z,14.38
2019-05-26T05:33:50.000Z,14.31
2019-05-26T05:34:50.000Z,14.38
2019-05-26T05:35:50.000Z,14.31
2019-05-26T05:36:50.000Z,14.38
2019-05-26T05:37:50.000Z,14.44
2019-05-26T05:38:50.000Z,14.38
2019-05-26T05:39:50.000Z,14.38
2019-05-26T05:40:50.000Z,14.44
2019-05-26T05:41:50.000Z,14.44
2019-05-26T05:42:50.000Z,14.44
2019-05-26T05:43:50.000Z,14.44
2019-05-26T05:44:50.000Z,14.44
2019-05-26T05:45:50.000Z,14.50
2019-05-26T05:46:50.000Z,14.44
2019-05-26T05:47:50.000Z,14.44
2019-05-26T05:48:50.000Z,14.50
2019-05-26T05:49:50.000Z,14.50
2019-05-26T05:50:50.000Z,14.44
2019-05-26T05:51:50.000Z,14.50
2019-05-26T05:52:50.000Z,14.50
2019-05-26T05:53:50.000Z,14.50
2019-05-26T05:54:50.000Z,14.50
2019-05-26T05:55:50.000Z,14.56
2019-05-26T05:56:50.000Z,14.56
2019-05-26T05:57:50.000Z,14.56
2019-05-26T05:58:50.000Z,14.56
2019-05-26T05:59:50.000Z,14.62
2019-05-26T06:00:50.000Z,14.62
2019-05-26T06:01:50.000Z,14.62
2019-05-26T06:02:50.000Z,14.62
2019-05-26T06:03:50.000Z,14.62
2019-05-26T06:04:50.000Z,14.69
2019-05-26T06:05:50.000Z,14.75
2019-05-26T06:06:50.000Z,14.69
2019-05-26T06:07:50.000Z,14.75
2019-05-26T06:08:50.000Z,14.81
2019-05-26T06:09:50.000Z,14.81
2019-05-26T06:10:50.000Z,14.88
2019-05-26T06:11:50.000Z,14.88
2019-05-26T06:12:50.000Z,14.88
2019-05-26T06:13:50.000Z,14.94
2019-05-26T06:14:50.000Z,14.94
2019-05-26T06:15:50.000Z,14.94
2019-05-26T06:16:50.000Z,15.00
2019-05-26T06:17:50.000Z,15.00
2019-05-26T06:18:50.000Z,15.00
2019-05-26T06:19:50.000Z,15.06
2019-05-26T06:20:50.000Z,15.06
2019-05-26T06:21:50.000Z,15.06
2019-05-26T06:22:50.000Z,15.12
2019-05-26T06:23:50.000Z,15.12
2019-05-26T06:24:50.000Z,15.12
2019-05-26T06:25:50.000Z,15.19
2019-05-26T06:26:50.000Z,15.19
2019-05-26T06:27:50.000Z,15.19
2019-05-26T06:28:50.000Z,15.25
2019-05-26T06:29:50.000Z,15.25
2019-05-26T06:30:50.000Z,15.31
2019-05-26T06:31:50.000Z,15.31
2019-05-26T06:32:50.000Z,15.31
2019-05-26T06:33:50.000Z,15.31
2019-05-26T06:34:50.000Z,15.31
2019-05-26T06:35:50.000Z,15.31
2019-05-26T06:36:50.000Z,15.38
2019-05-26T06:37:51.000Z,15.38
2019-05-26T06:38:50.000Z,15.44
2019-05-26T06:39:50.000Z,15.44
2019-05-26T06:40:50.000Z,15.50
2019-05-26T06:41:50.000Z,15.50
2019-05-26T06:42:50.000Z,15.50
2019-05-26T06:43:50.000Z,15.50
2019-05-26T06:44:50.000Z,15.50
2019-05-26T06:45:50.000Z,15.56
2019-05-26T06:46:50.000Z,15.56
2019-05-26T06:47:50.000Z,15.56
2019-05-26T06:48:50.000Z,15.56
2019-05-26T06:49:50.000Z,15.50
2019-05-26T06:50:50.000Z,15.50
2019-05-26T06:51:50.000Z,15.56
2019-05-26T06:52:50.000Z,15.56
2019-05-26T06:53:50.000Z,15.62
2019-05-26T06:54:50.000Z,15.56
2019-05-26T06:55:50.000Z,15.62
2019-05-26T06:56:50.000Z,15.62
2019-05-26T06:57:50.000Z,15.69
2019-05-26T06:58:50.000Z,15.69
2019-05-26T06:59:50.000Z,15.75
2019-05-26T07:00:50.000Z,15.75
2019-05-26T07:01:50.000Z,15.69
2019-05-26T07:02:50.000Z,15.75
2019-05-26T07:03:50.000Z,15.69
2019-05-26T07:04:50.000Z,15.75
2019-05-26T07:05:50.000Z,15.75
2019-05-26T07:06:50.000Z,15.75
2019-05-26T07:07:50.000Z,15.75
2019-05-26T07:08:50.000Z,15.88
2019-05-26T07:09:50.000Z,15.81
2019-05-26T07:10:50.000Z,15.88
2019-05-26T07:11:50.000Z,15.94
2019-05-26T07:12:50.000Z,15.94
2019-05-26T07:13:50.000Z,16.00
2019-05-26T07:14:50.000Z,16.00
2019-05-26T07:15:50.000Z,16.06
2019-05-26T07:16:50.000Z,16.06
2019-05-26T07:17:50.000Z,16.12
2019-05-26T07:18:50.000Z,16.19
2019-05-26T07:19:50.000Z,16.19
2019-05-26T07:20:50.000Z,16.25
2019-05-26T07:21:50.000Z,16.25
2019-05-26T07:22:50.000Z,16.38
2019-05-26T07:23:50.000Z,16.38
2019-05-26T07:24:50.000Z,16.38
2019-05-26T07:25:50.000Z,16.38
2019-05-26T07:26:50.000Z,16.31
2019-05-26T07:27:50.000Z,16.31
2019-05-26T07:28:50.000Z,16.38
2019-05-26T07:29:50.000Z,16.38
2019-05-26T07:30:50.000Z,16.44
2019-05-26T07:31:50.000Z,16.44
2019-05-26T07:32:50.000Z,16.50
2019-05-26T07:33:50.000Z,16.50
2019-05-26T07:34:50.000Z,16.56
2019-05-26T07:35:50.000Z,16.50
2019-05-26T07:36:50.000Z,16.56
2019-05-26T07:37:50.000Z,16.62
2019-05-26T07:38:50.000Z,16.69
2019-05-26T07:39:50.000Z,16.69
2019-05-26T07:40:50.000Z,16.75
2019-05-26T07:41:50.000Z,16.75
2019-05-26T07:42:50.000Z,16.75
2019-05-26T07:43:50.000Z,16.75
2019-05-26T07:44:50.000Z,16.81
2019-05-26T07:45:50.000Z,16.88
2019-05-26T07:46:50.000Z,16.94
2019-05-26T07:47:50.000Z,16.94
2019-05-26T07:48:50.000Z,17.00
2019-05-26T07:49:50.000Z,17.06
2019-05-26T07:50:50.000Z,17.06
2019-05-26T07:51:50.000Z,17.12
2019-05-26T07:52:50.000Z,17.12
2019-05-26T07:53:50.000Z,17.19
2019-05-26T07:54:50.000Z,17.25
2019-05-26T07:55:50.000Z,17.25
2019-05-26T07:56:50.000Z,17.31
2019-05-26T07:57:50.000Z,17.31
2019-05-26T07:58:50.000Z,17.38
2019-05-26T07:59:50.000Z,17.38
2019-05-26T08:00:50.000Z,17.31
2019-05-26T08:01:50.000Z,17.31
2019-05-26T08:02:50.000Z,17.31
2019-05-26T08:03:50.000Z,17.31
2019-05-26T08:04:50.000Z,17.38
2019-05-26T08:05:50.000Z,17.38
2019-05-26T08:06:50.000Z,17.44
2019-05-26T08:07:50.000Z,17.38
2019-05-26T08:08:50.000Z,17.44
2019-05-26T08:09:50.000Z,17.44
2019-05-26T08:10:50.000Z,17.50
2019-05-26T08:11:50.000Z,17.50
2019-05-26T08:12:50.000Z,17.56
2019-05-26T08:13:50.000Z,17.56
2019-05-26T08:14:50.000Z,17.56
2019-05-26T08:15:50.000Z,17.62
2019-05-26T08:16:50.000Z,17.62
2019-05-26T08:17:50.000Z,17.56
2019-05-26T08:18:50.000Z,17.56
2019-05-26T08:19:50.000Z,17.62
2019-05-26T08:20:50.000Z,17.56
2019-05-26T08:21:50.000Z,17.69
2019-05-26T08:22:50.000Z,17.69
2019-05-26T08:23:50.000Z,17.69
2019-05-26T08:24:50.000Z,17.69
2019-05-26T08:25:50.000Z,17.75
2019-05-26T08:26:50.000Z,17.81
2019-05-26T08:27:50.000Z,17.88
2019-05-26T08:28:50.000Z,17.88
2019-05-26T08:29:50.000Z,17.94
2019-05-26T08:30:50.000Z,18.00
2019-05-26T08:31:50.000Z,18.06
2019-05-26T08:32:50.000Z,18.06
2019-05-26T08:33:50.000Z,18.12
2019-05-26T08:34:50.000Z,18.12
2019-05-26T08:35:50.000Z,18.19
2019-05-26T08:36:50.000Z,18.19
2019-05-26T08:37:50.000Z,18.12
2019-05-26T08:38:50.000Z,18.25
2019-05-26T08:39:50.000Z,18.25
2019-05-26T08:40:50.000Z,18.31
2019-05-26T08:41:50.000Z,18.38
2019-05-26T08:42:50.000Z,18.44
2019-05-26T08:43:50.000Z,18.50
2019-05-26T08:44:50.000Z,18.50
2019-05-26T08:45:50.000Z,18.56
2019-05-26T08:46:50.000Z,18.62
2019-05-26T08:47:50.000Z,18.62
2019-05-26T08:48:50.000Z,18.69
2019-05-26T08:49:50.000Z,18.69
2019-05-26T08:50:50.000Z,18.69
2019-05-26T08:51:50.000Z,18.75
2019-05-26T08:52:50.000Z,18.69
2019-05-26T08:53:50.000Z,18.75
2019-05-26T08:54:50.000Z,18.75
2019-05-26T08:55:50.000Z,18.75
2019-05-26T08:56:50.000Z,18.81
2019-05-26T08:57:50.000Z,18.88
2019-05-26T08:58:50.000Z,18.88
2019-05-26T08:59:50.000Z,18.88
2019-05-26T09:00:50.000Z,18.88
2019-05-26T09:01:50.000Z,18.88
2019-05-26T09:02:50.000Z,18.88
2019-05-26T09:03:50.000Z,18.94
2019-05-26T09:04:50.000Z,18.94
2019-05-26T09:05:50.000Z,19.00
2019-05-26T09:06:50.000Z,19.00
2019-05-26T09:07:50.000Z,19.00
2019-05-26T09:08:50.000Z,19.00
2019-05-26T09:09:50.000Z,19.00
2019-05-26T09:10:50.000Z,18.88
2019-05-26T09:11:50.000Z,18.94
2019-05-26T09:12:50.000Z,18.94
2019-05-26T09:13:50.000Z,18.94
2019-05-26T09:14:50.000Z,19.00
2019-05-26T09:15:50.000Z,19.00
2019-05-26T09:16:50.000Z,19.06
2019-05-26T09:17:50.000Z,19.06
2019-05-26T09:18:50.000Z,19.12
2019-05-26T09:19:50.000Z,19.19
2019-05-26T09:20:50.000Z,19.19
2019-05-26T09:21:50.000Z,19.25
2019-05-26T09:22:50.000Z,19.25
2019-05-26T09:23:50.000Z,19.25
2019-05-26T09:24:50.000Z,19.25
2019-05-26T09:25:50.000Z,19.31
2019-05-26T09:26:50.000Z,19.31
2019-05-26T09:27:50.000Z,19.38
2019-05-26T09:28:50.000Z,19.44
2019-05-26T09:29:50.000Z,19.44
2019-05-26T09:30:50.000Z,19.50
2019-05-26T09:31:50.000Z,19.50
2019-05-26T09:32:50.000Z,19.56
2019-05-26T09:33:50.000Z,19.62
2019-05-26T09:34:50.000Z,19.62
2019-05-26T09:35:50.000Z,19.56
2019-05-26T09:36:50.000Z,19.62
2019-05-26T09:37:50.000Z,19.69
2019-05-26T09:38:50.000Z,19.69
2019-05-26T09:39:50.000Z,19.75
2019-05-26T09:40:50.000Z,19.81
2019-05-26T09:41:50.000Z,19.81
2019-05-26T09:42:50.000Z,19.81
2019-05-26T09:43:50.000Z,19.81
2019-05-26T09:44:50.000Z,19.81
2019-05-26T09:45:50.000Z,19.88
2019-05-26T09:46:50.000Z,19.88
2019-05-26T09:47:50.000Z,19.94
2019-05-26T09:48:50.000Z,20.00
2019-05-26T09:49:50.000Z,20.06
2019-05-26T09:50:50.000Z,20.06
2019-05-26T09:51:50.000Z,19.94
2019-05-26T09:52:50.000Z,19.94
2019-05-26T09:53:50.000Z,20.00
2019-05-26T09:54:50.000Z,20.06
2019-05-26T09:55:50.000Z,20.12
2019-05-26T09:56:50.000Z,20.19
2019-05-26T09:57:50.000Z,20.19
2019-05-26T09:58:50.000Z,20.25
2019-05-26T09:59:50.000Z,20.31
2019-05-26T10:00:50.000Z,20.38
2019-05-26T10:01:50.000Z,20.38
2019-05-26T10:02:50.000Z,20.44
2019-05-26T10:03:50.000Z,20.44
2019-05-26T10:04:50.000Z,20.50
2019-05-26T10:05:50.000Z,20.50
2019-05-26T10:06:50.000Z,20.56
2019-05-26T10:07:50.000Z,20.62
2019-05-26T10:08:50.000Z,20.62
2019-05-26T10:09:50.000Z,20.62
2019-05-26T10:10:50.000Z,20.69
2019-05-26T10:11:50.000Z,20.69
2019-05-26T10:12:50.000Z,20.75
2019-05-26T10:13:50.000Z,20.75
2019-05-26T10:14:50.000Z,20.81
2019-05-26T10:15:50.000Z,20.75
2019-05-26T10:16:50.000Z,20.75
2019-05-26T10:17:50.000Z,20.75
2019-05-26T10:18:52.000Z,20.75
2019-05-26T10:19:50.000Z,20.81
2019-05-26T10:20:50.000Z,20.81
2019-05-26T10:21:50.000Z,20.88
2019-05-26T10:22:50.000Z,20.88
2019-05-26T10:23:50.000Z,20.94
2019-05-26T10:24:50.000Z,21.00
2019-05-26T10:25:50.000Z,21.06
2019-05-26T10:26:50.000Z,21.06
2019-05-26T10:27:50.000Z,21.12
2019-05-26T10:28:50.000Z,21.06
2019-05-26T10:29:50.000Z,21.12
2019-05-26T10:30:50.000Z,21.12
2019-05-26T10:31:50.000Z,21.06
2019-05-26T10:32:50.000Z,21.12
2019-05-26T10:33:50.000Z,21.06
2019-05-26T10:34:50.000Z,21.06
2019-05-26T10:35:50.000Z,21.12
2019-05-26T10:36:50.000Z,21.12
2019-05-26T10:37:50.000Z,21.12
2019-05-26T10:38:50.000Z,21.19
2019-05-26T10:39:50.000Z,21.19
2019-05-26T10:40:50.000Z,21.19
2019-05-26T10:41:50.000Z,21.25
2019-05-26T10:42:50.000Z,21.25
2019-05-26T10:43:50.000Z,21.31
2019-05-26T10:44:50.000Z,21.31
2019-05-26T10:45:50.000Z,21.31
2019-05-26T10:46:50.000Z,21.31
2019-05-26T10:47:50.000Z,21.25
2019-05-26T10:48:50.000Z,21.31
2019-05-26T10:49:50.000Z,21.25
2019-05-26T10:50:50.000Z,21.25
2019-05-26T10:51:50.000Z,21.19
2019-05-26T10:52:50.000Z,21.19
2019-05-26T10:53:50.000Z,21.25
2019-05-26T10:54:50.000Z,21.25
2019-05-26T10:55:50.000Z,21.31
2019-05-26T10:56:50.000Z,21.25
2019-05-26T10:57:50.000Z,21.25
2019-05-26T10:58:50.000Z,21.31
2019-05-26T10:59:50.000Z,21.19
2019-05-26T11:00:50.000Z,21.12
2019-05-26T11:01:50.000Z,21.00
2019-05-26T11:02:50.000Z,20.88
2019-05-26T11:03:50.000Z,20.88
2019-05-26T11:04:50.000Z,20.94
2019-05-26T11:05:50.000Z,21.00
2019-05-26T11:06:50.000Z,21.06
2019-05-26T11:07:50.000Z,21.12
2019-05-26T11:08:50.000Z,21.06
2019-05-26T11:09:50.000Z,21.12
2019-05-26T11:10:50.000Z,21.19
2019-05-26T11:11:50.000Z,21.19
2019-05-26T11:12:50.000Z,21.25
2019-05-26T11:13:50.000Z,21.31
2019-05-26T11:14:50.000Z,21.38
2019-05-26T11:15:50.000Z,21.38
2019-05-26T11:16:50.000Z,21.44
2019-05-26T11:17:50.000Z,21.50
2019-05-26T11:18:50.000Z,21.44
2019-05-26T11:19:50.000Z,21.50
2019-05-26T11:20:50.000Z,21.50
2019-05-26T11:21:50.000Z,21.44
2019-05-26T11:22:50.000Z,21.44
2019-05-26T11:23:50.000Z,21.44
2019-05-26T11:24:50.000Z,21.44
2019-05-26T11:25:50.000Z,21.38
2019-05-26T11:26:50.000Z,21.38
2019-05-26T11:28:00.000Z,21.44
2019-05-26T11:28:50.000Z,21.50
2019-05-26T11:29:50.000Z,21.56
2019-05-26T11:30:50.000Z,21.56
2019-05-26T11:31:50.000Z,21.62
2019-05-26T11:32:50.000Z,21.69
2019-05-26T11:33:50.000Z,21.69
2019-05-26T11:34:50.000Z,21.69
2019-05-26T11:35:50.000Z,21.81
2019-05-26T11:36:50.000Z,21.81
2019-05-26T11:37:50.000Z,21.81
2019-05-26T11:38:50.000Z,21.88
2019-05-26T11:39:50.000Z,21.88
2019-05-26T11:40:50.000Z,21.94
2019-05-26T11:41:50.000Z,21.94
2019-05-26T11:42:50.000Z,22.00
2019-05-26T11:43:50.000Z,22.06
2019-05-26T11:44:50.000Z,22.06
2019-05-26T11:45:50.000Z,22.12
2019-05-26T11:46:50.000Z,22.12
2019-05-26T11:47:50.000Z,22.12
2019-05-26T11:48:50.000Z,22.06
2019-05-26T11:49:50.000Z,22.06
2019-05-26T11:50:50.000Z,22.00
2019-05-26T11:51:50.000Z,22.00
2019-05-26T11:52:50.000Z,22.06
2019-05-26T11:53:50.000Z,22.12
2019-05-26T11:54:50.000Z,22.19
2019-05-26T11:55:50.000Z,22.25
2019-05-26T11:56:50.000Z,22.25
2019-05-26T11:57:50.000Z,22.31
2019-05-26T11:58:50.000Z,22.25
2019-05-26T11:59:50.000Z,22.25
2019-05-26T12:00:50.000Z,22.25
2019-05-26T12:01:50.000Z,22.25
2019-05-26T12:02:50.000Z,22.25
2019-05-26T12:03:50.000Z,22.25
2019-05-26T12:04:50.000Z,22.25
2019-05-26T12:05:50.000Z,22.25
2019-05-26T12:06:50.000Z,22.31
2019-05-26T12:07:50.000Z,22.38
2019-05-26T12:08:50.000Z,22.38
2019-05-26T12:09:50.000Z,22.44
2019-05-26T12:10:50.000Z,22.56
2019-05-26T12:11:51.000Z,22.62
2019-05-26T12:12:50.000Z,22.69
2019-05-26T12:13:50.000Z,22.75
2019-05-26T12:14:50.000Z,22.75
2019-05-26T12:15:50.000Z,22.81
2019-05-26T12:16:50.000Z,22.81
2019-05-26T12:17:50.000Z,22.88
2019-05-26T12:18:50.000Z,22.81
2019-05-26T12:19:50.000Z,22.88
2019-05-26T12:20:50.000Z,22.81
2019-05-26T12:21:50.000Z,22.88
2019-05-26T12:22:50.000Z,22.88
2019-05-26T12:23:50.000Z,22.88
2019-05-26T12:24:50.000Z,22.81
2019-05-26T12:25:50.000Z,22.81
2019-05-26T12:26:50.000Z,22.88
2019-05-26T12:27:50.000Z,22.81
2019-05-26T12:28:50.000Z,22.69
2019-05-26T12:29:50.000Z,22.69
2019-05-26T12:30:50.000Z,22.62
2019-05-26T12:31:50.000Z,22.62
2019-05-26T12:32:50.000Z,22.56
2019-05-26T12:33:50.000Z,22.56
2019-05-26T12:34:50.000Z,22.56
2019-05-26T12:35:50.000Z,22.50
2019-05-26T12:36:50.000Z,22.56
2019-05-26T12:37:50.000Z,22.44
2019-05-26T12:38:50.000Z,22.44
2019-05-26T12:39:50.000Z,22.50
2019-05-26T12:40:50.000Z,22.56
2019-05-26T12:41:50.000Z,22.62
2019-05-26T12:42:50.000Z,22.69
2019-05-26T12:43:50.000Z,22.69
2019-05-26T12:44:50.000Z,22.69
2019-05-26T12:45:50.000Z,22.69
2019-05-26T12:46:50.000Z,22.62
2019-05-26T12:47:50.000Z,22.62
2019-05-26T12:48:50.000Z,22.56
2019-05-26T12:49:50.000Z,22.56
2019-05-26T12:50:50.000Z,22.62
2019-05-26T12:51:51.000Z,22.69
2019-05-26T12:52:50.000Z,22.69